KJAC

Jackson Hole Airport

Jackson, Wyoming, USA
KJAC 171124Z 1712/1812 VRB05KT P6SM SKC FM172000 21007KT P6SM SCT110 SCT200 FM180200 VRB05KT P6SM SCT090 BKN140 AMD LTD TO CLD VIS AND WIND
Issued Valid From Valid To
Aug-17 @ 11:24 UTC
(4 hours ago)
Aug-17 @ 12:00 UTC
(3 hours ago)
Aug-18 @ 12:00 UTC
(in 21 hours)
Aug-17 @ 12:00 to Aug-17 @ 20:00
KJAC 171124Z 1712/1812 VRB05KT P6SM SKC
Wind Visibility Clouds
Variable at 5 knots Greater than 6 miles
  • Clear skies
From Aug-17 @ 20:00 to Aug-18 @ 02:00
FM172000 21007KT P6SM SCT110 SCT200
Wind Visibility Clouds
210° at 7 knots Greater than 6 miles
  • Scattered at 11,000' AGL
  • Scattered at 20,000' AGL
From Aug-18 @ 02:00 to Aug-18 @ 12:00
FM180200 VRB05KT P6SM SCT090 BKN140 AMD LTD TO CLD VIS AND WIND
Wind Visibility Clouds
Variable at 5 knots Greater than 6 miles
  • Scattered at 9,000' AGL
  • Broken at 14,000' AGL
KJAC 171124Z 1712/1812 VRB05KT P6SM SKC FM172000 21007KT P6SM SCT110 SCT200 FM180200 VRB05KT P6SM SCT090 BKN140 AMD LTD TO CLD VIS AND WIND
Issued Aug-17 @ 11:24 UTC
(4 hours ago)
Valid From Aug-17 @ 12:00 UTC
(3 hours ago)
Valid To Aug-18 @ 12:00 UTC
(in 21 hours)
Aug-17 @ 12:00 - Aug-17 @ 20:00
Wind Visibility
Variable at 5 knots Greater than 6 miles
Clouds
  • Clear skies
From Aug-17 @ 20:00 - Aug-18 @ 02:00
Wind Visibility
210° at 7 knots Greater than 6 miles
Clouds
  • Scattered at 11,000' AGL
  • Scattered at 20,000' AGL
From Aug-18 @ 02:00 - Aug-18 @ 12:00
Wind Visibility
Variable at 5 knots Greater than 6 miles
Clouds
  • Scattered at 9,000' AGL
  • Broken at 14,000' AGL